sensor_id;sensor_type;location;lat;lon;timestamp;P1;durP1;ratioP1;P2;durP2;ratioP2
56005;SDS011;41888;44.696;10.522;2023-08-06T00:00:54;2.28;;;0.50;;
56005;SDS011;41888;44.696;10.522;2023-08-06T00:03:20;1.15;;;0.40;;
56005;SDS011;41888;44.696;10.522;2023-08-06T00:05:46;0.90;;;0.40;;
56005;SDS011;41888;44.696;10.522;2023-08-06T00:08:13;0.88;;;0.40;;
56005;SDS011;41888;44.696;10.522;2023-08-06T00:10:39;1.15;;;0.60;;
56005;SDS011;41888;44.696;10.522;2023-08-06T00:13:06;0.60;;;0.30;;
56005;SDS011;41888;44.696;10.522;2023-08-06T00:15:32;1.40;;;0.40;;
56005;SDS011;41888;44.696;10.522;2023-08-06T00:17:58;0.85;;;0.40;;
56005;SDS011;41888;44.696;10.522;2023-08-06T00:20:25;1.02;;;0.40;;
56005;SDS011;41888;44.696;10.522;2023-08-06T00:22:51;1.25;;;0.40;;
56005;SDS011;41888;44.696;10.522;2023-08-06T00:25:17;0.82;;;0.40;;
56005;SDS011;41888;44.696;10.522;2023-08-06T00:27:44;0.70;;;0.40;;
56005;SDS011;41888;44.696;10.522;2023-08-06T00:30:10;1.02;;;0.40;;
56005;SDS011;41888;44.696;10.522;2023-08-06T00:32:37;1.85;;;0.55;;
56005;SDS011;41888;44.696;10.522;2023-08-06T00:35:03;1.05;;;0.52;;
56005;SDS011;41888;44.696;10.522;2023-08-06T00:37:30;1.88;;;0.30;;
56005;SDS011;41888;44.696;10.522;2023-08-06T00:39:56;0.57;;;0.40;;
56005;SDS011;41888;44.696;10.522;2023-08-06T00:42:22;1.65;;;0.60;;
56005;SDS011;41888;44.696;10.522;2023-08-06T00:44:48;4.47;;;0.80;;
56005;SDS011;41888;44.696;10.522;2023-08-06T00:47:14;0.63;;;0.38;;
56005;SDS011;41888;44.696;10.522;2023-08-06T00:49:41;0.30;;;0.30;;
56005;SDS011;41888;44.696;10.522;2023-08-06T00:52:08;1.77;;;0.80;;
56005;SDS011;41888;44.696;10.522;2023-08-06T00:54:34;0.32;;;0.30;;
56005;SDS011;41888;44.696;10.522;2023-08-06T00:57:01;1.23;;;0.55;;
56005;SDS011;41888;44.696;10.522;2023-08-06T00:59:29;0.93;;;0.43;;
56005;SDS011;41888;44.696;10.522;2023-08-06T01:01:56;2.30;;;0.60;;
56005;SDS011;41888;44.696;10.522;2023-08-06T01:04:22;0.63;;;0.35;;
56005;SDS011;41888;44.696;10.522;2023-08-06T01:06:52;2.05;;;0.50;;
56005;SDS011;41888;44.696;10.522;2023-08-06T01:09:30;1.95;;;0.52;;
56005;SDS011;41888;44.696;10.522;2023-08-06T01:12:28;1.58;;;0.60;;
56005;SDS011;41888;44.696;10.522;2023-08-06T01:15:05;0.75;;;0.30;;
56005;SDS011;41888;44.696;10.522;2023-08-06T01:17:40;1.20;;;0.35;;
56005;SDS011;41888;44.696;10.522;2023-08-06T01:20:08;0.98;;;0.90;;
56005;SDS011;41888;44.696;10.522;2023-08-06T01:22:34;1.05;;;0.40;;
56005;SDS011;41888;44.696;10.522;2023-08-06T01:25:01;0.95;;;0.40;;
56005;SDS011;41888;44.696;10.522;2023-08-06T01:27:32;3.08;;;0.47;;
56005;SDS011;41888;44.696;10.522;2023-08-06T01:30:15;0.90;;;0.40;;
56005;SDS011;41888;44.696;10.522;2023-08-06T01:32:46;0.98;;;0.47;;
56005;SDS011;41888;44.696;10.522;2023-08-06T01:35:18;3.13;;;0.40;;
56005;SDS011;41888;44.696;10.522;2023-08-06T01:37:46;2.22;;;0.70;;
56005;SDS011;41888;44.696;10.522;2023-08-06T01:40:13;1.95;;;0.50;;
56005;SDS011;41888;44.696;10.522;2023-08-06T01:42:40;0.60;;;0.38;;
56005;SDS011;41888;44.696;10.522;2023-08-06T01:45:06;0.70;;;0.47;;
56005;SDS011;41888;44.696;10.522;2023-08-06T01:47:34;0.98;;;0.40;;
56005;SDS011;41888;44.696;10.522;2023-08-06T01:50:00;2.28;;;0.68;;
56005;SDS011;41888;44.696;10.522;2023-08-06T01:52:27;0.38;;;0.30;;
56005;SDS011;41888;44.696;10.522;2023-08-06T01:54:54;0.82;;;0.50;;
56005;SDS011;41888;44.696;10.522;2023-08-06T01:57:20;0.68;;;0.32;;
56005;SDS011;41888;44.696;10.522;2023-08-06T01:59:46;3.67;;;0.63;;
56005;SDS011;41888;44.696;10.522;2023-08-06T02:02:12;1.23;;;0.40;;
56005;SDS011;41888;44.696;10.522;2023-08-06T02:04:39;1.92;;;0.47;;
56005;SDS011;41888;44.696;10.522;2023-08-06T02:07:05;0.68;;;0.40;;
56005;SDS011;41888;44.696;10.522;2023-08-06T02:09:31;0.68;;;0.52;;
56005;SDS011;41888;44.696;10.522;2023-08-06T02:11:57;0.90;;;0.50;;
56005;SDS011;41888;44.696;10.522;2023-08-06T02:14:24;2.30;;;0.60;;
56005;SDS011;41888;44.696;10.522;2023-08-06T02:16:50;1.63;;;0.80;;
56005;SDS011;41888;44.696;10.522;2023-08-06T02:19:16;2.20;;;0.70;;
56005;SDS011;41888;44.696;10.522;2023-08-06T02:21:42;1.75;;;0.68;;
56005;SDS011;41888;44.696;10.522;2023-08-06T02:24:08;0.93;;;0.40;;
56005;SDS011;41888;44.696;10.522;2023-08-06T02:26:35;1.58;;;0.60;;
56005;SDS011;41888;44.696;10.522;2023-08-06T02:29:01;1.77;;;0.70;;
56005;SDS011;41888;44.696;10.522;2023-08-06T02:31:27;1.50;;;0.77;;
56005;SDS011;41888;44.696;10.522;2023-08-06T02:33:53;4.40;;;0.60;;
56005;SDS011;41888;44.696;10.522;2023-08-06T02:36:19;2.35;;;0.75;;
56005;SDS011;41888;44.696;10.522;2023-08-06T02:38:45;3.00;;;1.38;;
56005;SDS011;41888;44.696;10.522;2023-08-06T02:41:12;1.52;;;0.80;;
56005;SDS011;41888;44.696;10.522;2023-08-06T02:43:38;2.60;;;0.50;;
56005;SDS011;41888;44.696;10.522;2023-08-06T02:46:04;2.72;;;0.73;;
56005;SDS011;41888;44.696;10.522;2023-08-06T02:48:31;2.25;;;0.63;;
56005;SDS011;41888;44.696;10.522;2023-08-06T02:50:57;5.50;;;0.60;;
56005;SDS011;41888;44.696;10.522;2023-08-06T02:53:24;0.85;;;0.40;;
56005;SDS011;41888;44.696;10.522;2023-08-06T02:55:51;0.98;;;0.50;;
56005;SDS011;41888;44.696;10.522;2023-08-06T02:58:17;2.60;;;1.00;;
56005;SDS011;41888;44.696;10.522;2023-08-06T03:00:58;1.88;;;0.70;;
56005;SDS011;41888;44.696;10.522;2023-08-06T03:03:33;1.20;;;0.63;;
56005;SDS011;41888;44.696;10.522;2023-08-06T03:06:00;1.17;;;0.60;;
56005;SDS011;41888;44.696;10.522;2023-08-06T03:08:26;1.38;;;0.82;;
56005;SDS011;41888;44.696;10.522;2023-08-06T03:10:53;0.80;;;0.40;;
56005;SDS011;41888;44.696;10.522;2023-08-06T03:13:19;1.23;;;0.73;;
56005;SDS011;41888;44.696;10.522;2023-08-06T03:15:52;0.80;;;0.50;;
56005;SDS011;41888;44.696;10.522;2023-08-06T03:18:19;10.60;;;1.00;;
56005;SDS011;41888;44.696;10.522;2023-08-06T03:20:46;1.33;;;0.50;;
56005;SDS011;41888;44.696;10.522;2023-08-06T03:23:12;2.72;;;0.70;;
56005;SDS011;41888;44.696;10.522;2023-08-06T03:25:39;1.40;;;0.85;;
56005;SDS011;41888;44.696;10.522;2023-08-06T03:28:05;1.98;;;0.70;;
56005;SDS011;41888;44.696;10.522;2023-08-06T03:30:31;1.80;;;0.75;;
56005;SDS011;41888;44.696;10.522;2023-08-06T03:32:57;3.90;;;0.80;;
56005;SDS011;41888;44.696;10.522;2023-08-06T03:35:23;1.15;;;0.70;;
56005;SDS011;41888;44.696;10.522;2023-08-06T03:37:49;1.38;;;0.52;;
56005;SDS011;41888;44.696;10.522;2023-08-06T03:40:16;1.50;;;0.55;;
56005;SDS011;41888;44.696;10.522;2023-08-06T03:42:42;2.30;;;1.52;;
56005;SDS011;41888;44.696;10.522;2023-08-06T03:45:08;3.80;;;0.60;;
56005;SDS011;41888;44.696;10.522;2023-08-06T03:47:34;0.60;;;0.40;;
56005;SDS011;41888;44.696;10.522;2023-08-06T03:50:01;1.75;;;0.60;;
56005;SDS011;41888;44.696;10.522;2023-08-06T03:52:27;1.20;;;0.60;;
56005;SDS011;41888;44.696;10.522;2023-08-06T03:54:53;1.88;;;0.55;;
56005;SDS011;41888;44.696;10.522;2023-08-06T03:57:19;0.90;;;0.52;;
56005;SDS011;41888;44.696;10.522;2023-08-06T03:59:45;4.53;;;1.67;;
56005;SDS011;41888;44.696;10.522;2023-08-06T04:02:12;2.45;;;0.70;;
56005;SDS011;41888;44.696;10.522;2023-08-06T04:04:38;1.88;;;0.55;;
56005;SDS011;41888;44.696;10.522;2023-08-06T04:07:04;1.25;;;0.50;;
56005;SDS011;41888;44.696;10.522;2023-08-06T04:09:30;0.35;;;0.30;;
56005;SDS011;41888;44.696;10.522;2023-08-06T04:11:58;2.60;;;0.45;;
56005;SDS011;41888;44.696;10.522;2023-08-06T04:14:26;0.60;;;0.40;;
56005;SDS011;41888;44.696;10.522;2023-08-06T04:16:52;0.70;;;0.50;;
56005;SDS011;41888;44.696;10.522;2023-08-06T04:19:18;1.20;;;0.70;;
56005;SDS011;41888;44.696;10.522;2023-08-06T04:21:45;1.15;;;0.60;;
56005;SDS011;41888;44.696;10.522;2023-08-06T04:24:11;1.13;;;0.60;;
56005;SDS011;41888;44.696;10.522;2023-08-06T04:26:37;2.13;;;0.63;;
56005;SDS011;41888;44.696;10.522;2023-08-06T04:29:03;1.75;;;0.95;;
56005;SDS011;41888;44.696;10.522;2023-08-06T04:31:29;1.02;;;0.50;;
56005;SDS011;41888;44.696;10.522;2023-08-06T04:33:55;3.17;;;1.48;;
56005;SDS011;41888;44.696;10.522;2023-08-06T04:36:22;1.88;;;0.50;;
56005;SDS011;41888;44.696;10.522;2023-08-06T04:38:48;1.13;;;0.70;;
56005;SDS011;41888;44.696;10.522;2023-08-06T04:41:14;2.80;;;0.52;;
56005;SDS011;41888;44.696;10.522;2023-08-06T04:43:40;0.73;;;0.40;;
56005;SDS011;41888;44.696;10.522;2023-08-06T04:46:06;3.72;;;0.70;;
56005;SDS011;41888;44.696;10.522;2023-08-06T04:48:33;1.88;;;0.60;;
56005;SDS011;41888;44.696;10.522;2023-08-06T04:50:59;1.75;;;0.70;;
56005;SDS011;41888;44.696;10.522;2023-08-06T04:53:25;1.58;;;0.30;;
56005;SDS011;41888;44.696;10.522;2023-08-06T04:55:51;0.95;;;0.43;;
56005;SDS011;41888;44.696;10.522;2023-08-06T04:58:18;1.95;;;0.70;;
56005;SDS011;41888;44.696;10.522;2023-08-06T05:00:44;2.55;;;0.50;;
56005;SDS011;41888;44.696;10.522;2023-08-06T05:03:10;1.05;;;0.50;;
56005;SDS011;41888;44.696;10.522;2023-08-06T05:05:36;0.90;;;0.43;;
56005;SDS011;41888;44.696;10.522;2023-08-06T05:08:04;0.75;;;0.45;;
56005;SDS011;41888;44.696;10.522;2023-08-06T05:10:31;1.27;;;0.40;;
56005;SDS011;41888;44.696;10.522;2023-08-06T05:12:57;2.53;;;0.70;;
56005;SDS011;41888;44.696;10.522;2023-08-06T05:15:23;1.48;;;0.60;;
56005;SDS011;41888;44.696;10.522;2023-08-06T05:17:50;0.60;;;0.22;;
56005;SDS011;41888;44.696;10.522;2023-08-06T05:20:16;0.95;;;0.40;;
56005;SDS011;41888;44.696;10.522;2023-08-06T05:22:43;2.60;;;0.43;;
56005;SDS011;41888;44.696;10.522;2023-08-06T05:25:11;0.30;;;0.28;;
56005;SDS011;41888;44.696;10.522;2023-08-06T05:27:38;2.33;;;0.75;;
56005;SDS011;41888;44.696;10.522;2023-08-06T05:30:05;0.32;;;0.32;;
56005;SDS011;41888;44.696;10.522;2023-08-06T05:32:31;1.73;;;0.30;;
56005;SDS011;41888;44.696;10.522;2023-08-06T05:34:58;1.38;;;0.50;;
56005;SDS011;41888;44.696;10.522;2023-08-06T05:37:24;0.50;;;0.40;;
56005;SDS011;41888;44.696;10.522;2023-08-06T05:39:50;0.68;;;0.43;;
56005;SDS011;41888;44.696;10.522;2023-08-06T05:42:16;0.77;;;0.30;;
56005;SDS011;41888;44.696;10.522;2023-08-06T05:44:42;0.73;;;0.40;;
56005;SDS011;41888;44.696;10.522;2023-08-06T05:47:09;0.50;;;0.20;;
56005;SDS011;41888;44.696;10.522;2023-08-06T05:49:35;1.27;;;0.35;;
56005;SDS011;41888;44.696;10.522;2023-08-06T05:52:01;0.60;;;0.30;;
56005;SDS011;41888;44.696;10.522;2023-08-06T05:54:31;0.70;;;0.40;;
56005;SDS011;41888;44.696;10.522;2023-08-06T05:56:57;1.40;;;0.40;;
56005;SDS011;41888;44.696;10.522;2023-08-06T05:59:23;1.50;;;0.30;;
56005;SDS011;41888;44.696;10.522;2023-08-06T06:01:49;0.65;;;0.28;;
56005;SDS011;41888;44.696;10.522;2023-08-06T06:04:15;0.82;;;0.40;;
56005;SDS011;41888;44.696;10.522;2023-08-06T06:06:42;2.58;;;0.30;;
56005;SDS011;41888;44.696;10.522;2023-08-06T06:09:08;0.93;;;0.40;;
56005;SDS011;41888;44.696;10.522;2023-08-06T06:11:34;1.17;;;0.55;;
56005;SDS011;41888;44.696;10.522;2023-08-06T06:14:00;0.43;;;0.30;;
56005;SDS011;41888;44.696;10.522;2023-08-06T06:16:27;0.40;;;0.30;;
56005;SDS011;41888;44.696;10.522;2023-08-06T06:18:53;2.80;;;1.05;;
56005;SDS011;41888;44.696;10.522;2023-08-06T06:21:20;1.55;;;0.50;;
56005;SDS011;41888;44.696;10.522;2023-08-06T06:23:46;0.90;;;0.50;;
56005;SDS011;41888;44.696;10.522;2023-08-06T06:26:12;1.20;;;0.30;;
56005;SDS011;41888;44.696;10.522;2023-08-06T06:28:38;0.88;;;0.32;;
56005;SDS011;41888;44.696;10.522;2023-08-06T06:31:04;0.43;;;0.17;;
56005;SDS011;41888;44.696;10.522;2023-08-06T06:33:30;0.45;;;0.22;;
56005;SDS011;41888;44.696;10.522;2023-08-06T06:35:57;1.75;;;0.50;;
56005;SDS011;41888;44.696;10.522;2023-08-06T06:38:23;1.92;;;0.45;;
56005;SDS011;41888;44.696;10.522;2023-08-06T06:40:56;1.10;;;0.70;;
56005;SDS011;41888;44.696;10.522;2023-08-06T06:43:22;20.20;;;1.80;;
56005;SDS011;41888;44.696;10.522;2023-08-06T06:45:53;2.55;;;1.50;;
56005;SDS011;41888;44.696;10.522;2023-08-06T06:48:24;4.32;;;1.55;;
56005;SDS011;41888;44.696;10.522;2023-08-06T06:50:54;1.83;;;1.17;;
56005;SDS011;41888;44.696;10.522;2023-08-06T06:53:20;2.05;;;1.00;;
56005;SDS011;41888;44.696;10.522;2023-08-06T06:55:54;2.17;;;1.65;;
56005;SDS011;41888;44.696;10.522;2023-08-06T06:58:21;2.80;;;1.90;;
56005;SDS011;41888;44.696;10.522;2023-08-06T07:00:47;5.10;;;1.55;;
56005;SDS011;41888;44.696;10.522;2023-08-06T07:03:14;2.55;;;2.08;;
56005;SDS011;41888;44.696;10.522;2023-08-06T07:05:41;2.10;;;1.65;;
56005;SDS011;41888;44.696;10.522;2023-08-06T07:08:09;2.33;;;1.50;;
56005;SDS011;41888;44.696;10.522;2023-08-06T07:10:36;1.98;;;1.50;;
56005;SDS011;41888;44.696;10.522;2023-08-06T07:13:03;2.60;;;1.27;;
56005;SDS011;41888;44.696;10.522;2023-08-06T07:15:29;3.28;;;1.88;;
56005;SDS011;41888;44.696;10.522;2023-08-06T07:17:55;3.42;;;1.85;;
56005;SDS011;41888;44.696;10.522;2023-08-06T07:20:21;4.40;;;1.95;;
56005;SDS011;41888;44.696;10.522;2023-08-06T07:22:47;2.58;;;1.98;;
56005;SDS011;41888;44.696;10.522;2023-08-06T07:25:15;4.80;;;1.42;;
56005;SDS011;41888;44.696;10.522;2023-08-06T07:27:44;3.75;;;1.45;;
56005;SDS011;41888;44.696;10.522;2023-08-06T07:30:10;4.95;;;1.60;;
56005;SDS011;41888;44.696;10.522;2023-08-06T07:32:36;4.22;;;1.75;;
56005;SDS011;41888;44.696;10.522;2023-08-06T07:35:03;2.63;;;1.58;;
56005;SDS011;41888;44.696;10.522;2023-08-06T07:37:29;3.13;;;1.70;;
56005;SDS011;41888;44.696;10.522;2023-08-06T07:39:56;3.35;;;1.50;;
56005;SDS011;41888;44.696;10.522;2023-08-06T07:42:22;1.85;;;1.00;;
56005;SDS011;41888;44.696;10.522;2023-08-06T07:44:55;2.88;;;0.80;;
56005;SDS011;41888;44.696;10.522;2023-08-06T07:47:23;2.50;;;0.98;;
56005;SDS011;41888;44.696;10.522;2023-08-06T07:49:49;3.15;;;1.38;;
56005;SDS011;41888;44.696;10.522;2023-08-06T07:52:18;2.30;;;1.27;;
56005;SDS011;41888;44.696;10.522;2023-08-06T07:54:45;4.38;;;1.00;;
56005;SDS011;41888;44.696;10.522;2023-08-06T07:57:14;1.67;;;0.75;;
56005;SDS011;41888;44.696;10.522;2023-08-06T07:59:40;4.72;;;1.00;;
56005;SDS011;41888;44.696;10.522;2023-08-06T08:02:06;2.70;;;1.02;;
56005;SDS011;41888;44.696;10.522;2023-08-06T08:04:32;1.90;;;0.82;;
56005;SDS011;41888;44.696;10.522;2023-08-06T08:06:59;3.22;;;1.55;;
56005;SDS011;41888;44.696;10.522;2023-08-06T08:09:28;2.60;;;1.00;;
56005;SDS011;41888;44.696;10.522;2023-08-06T08:11:54;4.72;;;1.98;;
56005;SDS011;41888;44.696;10.522;2023-08-06T08:14:20;2.10;;;0.90;;
56005;SDS011;41888;44.696;10.522;2023-08-06T08:16:46;4.90;;;2.50;;
56005;SDS011;41888;44.696;10.522;2023-08-06T08:19:13;2.72;;;1.20;;
56005;SDS011;41888;44.696;10.522;2023-08-06T08:21:39;2.47;;;1.00;;
56005;SDS011;41888;44.696;10.522;2023-08-06T08:24:05;3.83;;;1.13;;
56005;SDS011;41888;44.696;10.522;2023-08-06T08:26:33;3.17;;;1.10;;
56005;SDS011;41888;44.696;10.522;2023-08-06T08:28:59;1.70;;;0.82;;
56005;SDS011;41888;44.696;10.522;2023-08-06T08:31:25;3.38;;;1.48;;
56005;SDS011;41888;44.696;10.522;2023-08-06T08:33:51;3.05;;;1.20;;
56005;SDS011;41888;44.696;10.522;2023-08-06T08:36:18;2.55;;;0.90;;
56005;SDS011;41888;44.696;10.522;2023-08-06T08:38:44;5.60;;;1.00;;
56005;SDS011;41888;44.696;10.522;2023-08-06T08:41:11;2.72;;;1.20;;
56005;SDS011;41888;44.696;10.522;2023-08-06T08:43:37;2.00;;;1.30;;
56005;SDS011;41888;44.696;10.522;2023-08-06T08:46:05;2.55;;;1.10;;
56005;SDS011;41888;44.696;10.522;2023-08-06T08:48:33;3.67;;;1.05;;
56005;SDS011;41888;44.696;10.522;2023-08-06T08:51:00;5.28;;;1.40;;
56005;SDS011;41888;44.696;10.522;2023-08-06T08:53:27;2.50;;;1.33;;
56005;SDS011;41888;44.696;10.522;2023-08-06T08:55:55;4.57;;;1.05;;
56005;SDS011;41888;44.696;10.522;2023-08-06T08:58:22;5.00;;;1.23;;
56005;SDS011;41888;44.696;10.522;2023-08-06T09:00:48;3.63;;;1.35;;
56005;SDS011;41888;44.696;10.522;2023-08-06T09:03:18;1.05;;;0.75;;
56005;SDS011;41888;44.696;10.522;2023-08-06T09:05:45;3.28;;;0.95;;
56005;SDS011;41888;44.696;10.522;2023-08-06T09:08:15;3.92;;;1.10;;
56005;SDS011;41888;44.696;10.522;2023-08-06T09:10:47;2.78;;;0.90;;
56005;SDS011;41888;44.696;10.522;2023-08-06T09:13:14;1.40;;;0.77;;
56005;SDS011;41888;44.696;10.522;2023-08-06T09:15:41;2.63;;;0.80;;
56005;SDS011;41888;44.696;10.522;2023-08-06T09:18:09;3.25;;;1.08;;
56005;SDS011;41888;44.696;10.522;2023-08-06T09:20:37;1.88;;;0.80;;
56005;SDS011;41888;44.696;10.522;2023-08-06T09:23:10;1.92;;;0.70;;
56005;SDS011;41888;44.696;10.522;2023-08-06T09:25:39;3.33;;;1.00;;
56005;SDS011;41888;44.696;10.522;2023-08-06T09:28:06;2.58;;;0.80;;
56005;SDS011;41888;44.696;10.522;2023-08-06T09:30:35;3.90;;;0.77;;
56005;SDS011;41888;44.696;10.522;2023-08-06T09:33:02;2.17;;;0.70;;
56005;SDS011;41888;44.696;10.522;2023-08-06T09:35:35;4.20;;;0.70;;
56005;SDS011;41888;44.696;10.522;2023-08-06T09:38:07;4.90;;;0.82;;
56005;SDS011;41888;44.696;10.522;2023-08-06T09:40:35;5.95;;;1.42;;
56005;SDS011;41888;44.696;10.522;2023-08-06T09:43:02;2.20;;;0.70;;
56005;SDS011;41888;44.696;10.522;2023-08-06T09:45:34;2.80;;;0.80;;
56005;SDS011;41888;44.696;10.522;2023-08-06T09:48:05;1.30;;;0.52;;
56005;SDS011;41888;44.696;10.522;2023-08-06T09:50:33;1.90;;;0.70;;
56005;SDS011;41888;44.696;10.522;2023-08-06T09:53:03;3.22;;;0.70;;
56005;SDS011;41888;44.696;10.522;2023-08-06T09:55:31;1.20;;;0.60;;
56005;SDS011;41888;44.696;10.522;2023-08-06T09:57:58;2.72;;;0.60;;
56005;SDS011;41888;44.696;10.522;2023-08-06T10:00:28;1.10;;;0.50;;
56005;SDS011;41888;44.696;10.522;2023-08-06T10:02:59;2.83;;;0.45;;
56005;SDS011;41888;44.696;10.522;2023-08-06T10:05:26;1.40;;;0.52;;
56005;SDS011;41888;44.696;10.522;2023-08-06T10:07:52;1.52;;;0.40;;
56005;SDS011;41888;44.696;10.522;2023-08-06T10:10:20;1.00;;;0.45;;
56005;SDS011;41888;44.696;10.522;2023-08-06T10:12:49;0.98;;;0.50;;
56005;SDS011;41888;44.696;10.522;2023-08-06T10:15:20;1.20;;;0.65;;
56005;SDS011;41888;44.696;10.522;2023-08-06T10:17:51;2.53;;;0.65;;
56005;SDS011;41888;44.696;10.522;2023-08-06T10:20:22;2.33;;;0.50;;
56005;SDS011;41888;44.696;10.522;2023-08-06T10:23:02;1.20;;;0.50;;
56005;SDS011;41888;44.696;10.522;2023-08-06T10:25:30;1.63;;;0.57;;
56005;SDS011;41888;44.696;10.522;2023-08-06T10:27:58;1.27;;;0.60;;
56005;SDS011;41888;44.696;10.522;2023-08-06T10:30:31;0.63;;;0.40;;
56005;SDS011;41888;44.696;10.522;2023-08-06T10:33:01;3.17;;;0.60;;
56005;SDS011;41888;44.696;10.522;2023-08-06T10:37:58;0.70;;;0.40;;
56005;SDS011;41888;44.696;10.522;2023-08-06T10:40:28;0.70;;;0.30;;
56005;SDS011;41888;44.696;10.522;2023-08-06T10:42:58;1.17;;;0.43;;
56005;SDS011;41888;44.696;10.522;2023-08-06T10:45:26;1.15;;;0.57;;
56005;SDS011;41888;44.696;10.522;2023-08-06T10:47:54;3.65;;;0.50;;
56005;SDS011;41888;44.696;10.522;2023-08-06T10:50:22;1.42;;;0.30;;
56005;SDS011;41888;44.696;10.522;2023-08-06T10:52:49;0.82;;;0.30;;
56005;SDS011;41888;44.696;10.522;2023-08-06T10:55:25;0.60;;;0.40;;
56005;SDS011;41888;44.696;10.522;2023-08-06T10:57:54;2.03;;;0.55;;
56005;SDS011;41888;44.696;10.522;2023-08-06T11:00:22;0.75;;;0.25;;
56005;SDS011;41888;44.696;10.522;2023-08-06T11:02:49;0.52;;;0.30;;
56005;SDS011;41888;44.696;10.522;2023-08-06T11:05:16;1.15;;;0.40;;
56005;SDS011;41888;44.696;10.522;2023-08-06T11:07:43;1.90;;;0.50;;
56005;SDS011;41888;44.696;10.522;2023-08-06T11:10:10;2.15;;;0.35;;
56005;SDS011;41888;44.696;10.522;2023-08-06T11:12:37;0.88;;;0.35;;
56005;SDS011;41888;44.696;10.522;2023-08-06T11:15:04;0.63;;;0.30;;
56005;SDS011;41888;44.696;10.522;2023-08-06T11:17:32;1.48;;;1.23;;
56005;SDS011;41888;44.696;10.522;2023-08-06T11:19:59;2.05;;;0.50;;
56005;SDS011;41888;44.696;10.522;2023-08-06T11:22:30;0.70;;;0.40;;
56005;SDS011;41888;44.696;10.522;2023-08-06T11:24:56;1.33;;;0.57;;
56005;SDS011;41888;44.696;10.522;2023-08-06T11:27:23;1.00;;;0.55;;
56005;SDS011;41888;44.696;10.522;2023-08-06T11:29:53;1.50;;;0.60;;
56005;SDS011;41888;44.696;10.522;2023-08-06T11:32:19;0.75;;;0.40;;
56005;SDS011;41888;44.696;10.522;2023-08-06T11:34:46;0.88;;;0.63;;
56005;SDS011;41888;44.696;10.522;2023-08-06T11:37:15;2.05;;;0.52;;
56005;SDS011;41888;44.696;10.522;2023-08-06T11:39:48;0.73;;;0.30;;
56005;SDS011;41888;44.696;10.522;2023-08-06T11:42:15;2.65;;;0.30;;
56005;SDS011;41888;44.696;10.522;2023-08-06T11:44:41;0.82;;;0.52;;
56005;SDS011;41888;44.696;10.522;2023-08-06T11:47:12;1.20;;;0.52;;
56005;SDS011;41888;44.696;10.522;2023-08-06T11:49:43;1.42;;;0.68;;
56005;SDS011;41888;44.696;10.522;2023-08-06T11:52:15;1.02;;;0.52;;
56005;SDS011;41888;44.696;10.522;2023-08-06T11:54:43;1.95;;;0.60;;
56005;SDS011;41888;44.696;10.522;2023-08-06T11:57:13;0.75;;;0.30;;
56005;SDS011;41888;44.696;10.522;2023-08-06T11:59:43;1.75;;;0.60;;
56005;SDS011;41888;44.696;10.522;2023-08-06T12:02:10;1.58;;;0.60;;
56005;SDS011;41888;44.696;10.522;2023-08-06T12:04:57;0.60;;;0.40;;
56005;SDS011;41888;44.696;10.522;2023-08-06T12:07:36;1.65;;;0.60;;
56005;SDS011;41888;44.696;10.522;2023-08-06T12:10:07;1.10;;;0.30;;
56005;SDS011;41888;44.696;10.522;2023-08-06T12:12:34;0.63;;;0.35;;
56005;SDS011;41888;44.696;10.522;2023-08-06T12:15:02;0.57;;;0.20;;
56005;SDS011;41888;44.696;10.522;2023-08-06T12:17:29;0.80;;;0.40;;
56005;SDS011;41888;44.696;10.522;2023-08-06T12:19:55;1.10;;;0.50;;
56005;SDS011;41888;44.696;10.522;2023-08-06T12:22:21;2.35;;;0.50;;
56005;SDS011;41888;44.696;10.522;2023-08-06T12:24:47;4.45;;;0.50;;
56005;SDS011;41888;44.696;10.522;2023-08-06T12:27:14;1.30;;;0.50;;
56005;SDS011;41888;44.696;10.522;2023-08-06T12:29:42;1.23;;;0.40;;
56005;SDS011;41888;44.696;10.522;2023-08-06T12:32:09;0.98;;;0.63;;
56005;SDS011;41888;44.696;10.522;2023-08-06T12:34:37;1.90;;;0.47;;
56005;SDS011;41888;44.696;10.522;2023-08-06T12:37:07;0.73;;;0.50;;
56005;SDS011;41888;44.696;10.522;2023-08-06T12:39:34;1.77;;;0.82;;
56005;SDS011;41888;44.696;10.522;2023-08-06T12:42:02;1.25;;;0.40;;
56005;SDS011;41888;44.696;10.522;2023-08-06T12:44:29;0.80;;;0.40;;
56005;SDS011;41888;44.696;10.522;2023-08-06T12:46:56;1.67;;;0.65;;
56005;SDS011;41888;44.696;10.522;2023-08-06T12:49:22;0.20;;;0.20;;
56005;SDS011;41888;44.696;10.522;2023-08-06T12:51:51;1.48;;;0.60;;
56005;SDS011;41888;44.696;10.522;2023-08-06T12:54:18;0.73;;;0.40;;
56005;SDS011;41888;44.696;10.522;2023-08-06T12:56:46;1.10;;;0.45;;
56005;SDS011;41888;44.696;10.522;2023-08-06T12:59:16;0.88;;;0.30;;
56005;SDS011;41888;44.696;10.522;2023-08-06T13:01:43;1.13;;;0.47;;
56005;SDS011;41888;44.696;10.522;2023-08-06T13:04:10;0.88;;;0.43;;
56005;SDS011;41888;44.696;10.522;2023-08-06T13:06:36;1.00;;;0.60;;
56005;SDS011;41888;44.696;10.522;2023-08-06T13:09:04;0.90;;;0.50;;
56005;SDS011;41888;44.696;10.522;2023-08-06T13:11:33;1.65;;;0.50;;
56005;SDS011;41888;44.696;10.522;2023-08-06T13:14:03;0.70;;;0.30;;
56005;SDS011;41888;44.696;10.522;2023-08-06T13:16:34;0.82;;;0.43;;
56005;SDS011;41888;44.696;10.522;2023-08-06T13:19:02;1.52;;;0.32;;
56005;SDS011;41888;44.696;10.522;2023-08-06T13:21:36;1.02;;;0.40;;
56005;SDS011;41888;44.696;10.522;2023-08-06T13:24:17;4.70;;;0.80;;
56005;SDS011;41888;44.696;10.522;2023-08-06T13:26:44;1.17;;;0.50;;
56005;SDS011;41888;44.696;10.522;2023-08-06T13:29:10;0.75;;;0.32;;
56005;SDS011;41888;44.696;10.522;2023-08-06T13:31:36;1.40;;;0.68;;
56005;SDS011;41888;44.696;10.522;2023-08-06T13:34:03;2.60;;;0.68;;
56005;SDS011;41888;44.696;10.522;2023-08-06T13:36:29;1.30;;;0.50;;
56005;SDS011;41888;44.696;10.522;2023-08-06T13:38:56;1.23;;;0.50;;
56005;SDS011;41888;44.696;10.522;2023-08-06T13:41:22;1.13;;;0.45;;
56005;SDS011;41888;44.696;10.522;2023-08-06T13:43:49;1.63;;;0.60;;
56005;SDS011;41888;44.696;10.522;2023-08-06T13:46:15;1.25;;;0.68;;
56005;SDS011;41888;44.696;10.522;2023-08-06T13:48:44;0.90;;;0.30;;
56005;SDS011;41888;44.696;10.522;2023-08-06T13:51:12;1.85;;;0.52;;
56005;SDS011;41888;44.696;10.522;2023-08-06T13:53:39;0.73;;;0.40;;
56005;SDS011;41888;44.696;10.522;2023-08-06T13:56:06;1.58;;;0.50;;
56005;SDS011;41888;44.696;10.522;2023-08-06T13:58:34;1.17;;;0.50;;
56005;SDS011;41888;44.696;10.522;2023-08-06T14:01:01;1.58;;;0.60;;
56005;SDS011;41888;44.696;10.522;2023-08-06T14:03:27;2.25;;;0.40;;
56005;SDS011;41888;44.696;10.522;2023-08-06T14:05:53;1.27;;;0.50;;
56005;SDS011;41888;44.696;10.522;2023-08-06T14:08:23;1.55;;;0.50;;
56005;SDS011;41888;44.696;10.522;2023-08-06T14:10:50;1.42;;;0.50;;
56005;SDS011;41888;44.696;10.522;2023-08-06T14:13:20;1.85;;;0.57;;
56005;SDS011;41888;44.696;10.522;2023-08-06T14:15:51;2.22;;;0.80;;
56005;SDS011;41888;44.696;10.522;2023-08-06T14:18:17;1.40;;;0.52;;
56005;SDS011;41888;44.696;10.522;2023-08-06T14:20:44;0.98;;;0.43;;
56005;SDS011;41888;44.696;10.522;2023-08-06T14:23:10;0.45;;;0.30;;
56005;SDS011;41888;44.696;10.522;2023-08-06T14:25:37;1.17;;;0.50;;
56005;SDS011;41888;44.696;10.522;2023-08-06T14:28:03;1.00;;;0.40;;
56005;SDS011;41888;44.696;10.522;2023-08-06T14:30:31;1.08;;;0.40;;
56005;SDS011;41888;44.696;10.522;2023-08-06T14:32:58;1.27;;;0.68;;
56005;SDS011;41888;44.696;10.522;2023-08-06T14:35:25;1.65;;;0.57;;
56005;SDS011;41888;44.696;10.522;2023-08-06T14:37:52;1.17;;;0.45;;